sensor_id;sensor_type;location;lat;lon;timestamp;pressure;altitude;pressure_sealevel;temperature;humidity
44027;BME280;29696;55.698;37.460;2023-06-04T00:02:07;99705.81;;;5.42;82.34
44027;BME280;29696;55.698;37.460;2023-06-04T00:04:33;99712.72;;;5.43;82.39
44027;BME280;29696;55.698;37.460;2023-06-04T00:07:00;99717.13;;;5.42;82.44
44027;BME280;29696;55.698;37.460;2023-06-04T00:09:26;99712.09;;;5.39;81.96
44027;BME280;29696;55.698;37.460;2023-06-04T00:11:52;99716.50;;;5.39;82.21
44027;BME280;29696;55.698;37.460;2023-06-04T00:14:19;99724.56;;;5.36;82.12
44027;BME280;29696;55.698;37.460;2023-06-04T00:16:45;99720.34;;;5.33;82.34
44027;BME280;29696;55.698;37.460;2023-06-04T00:19:11;99727.44;;;5.31;82.23
44027;BME280;29696;55.698;37.460;2023-06-04T00:21:38;99733.53;;;5.32;82.35
44027;BME280;29696;55.698;37.460;2023-06-04T00:24:04;99728.59;;;5.27;82.30
44027;BME280;29696;55.698;37.460;2023-06-04T00:26:31;99731.41;;;5.24;82.77
44027;BME280;29696;55.698;37.460;2023-06-04T00:28:57;99731.59;;;5.21;82.80
44027;BME280;29696;55.698;37.460;2023-06-04T00:31:24;99723.06;;;5.17;83.00
44027;BME280;29696;55.698;37.460;2023-06-04T00:33:51;99725.69;;;5.17;82.86
44027;BME280;29696;55.698;37.460;2023-06-04T00:36:17;99721.53;;;5.15;82.79
44027;BME280;29696;55.698;37.460;2023-06-04T00:38:44;99722.34;;;5.15;83.36
44027;BME280;29696;55.698;37.460;2023-06-04T00:41:10;99731.06;;;5.16;83.69
44027;BME280;29696;55.698;37.460;2023-06-04T00:43:37;99738.16;;;5.14;83.99
44027;BME280;29696;55.698;37.460;2023-06-04T00:46:03;99735.94;;;5.08;83.74
44027;BME280;29696;55.698;37.460;2023-06-04T00:48:30;99744.72;;;5.07;83.75
44027;BME280;29696;55.698;37.460;2023-06-04T00:50:56;99751.66;;;5.08;83.88
44027;BME280;29696;55.698;37.460;2023-06-04T00:53:24;99744.94;;;5.03;83.78
44027;BME280;29696;55.698;37.460;2023-06-04T00:55:52;99749.84;;;5.08;83.73
44027;BME280;29696;55.698;37.460;2023-06-04T00:58:18;99751.66;;;5.08;83.86
44027;BME280;29696;55.698;37.460;2023-06-04T01:00:46;99757.63;;;5.10;83.85
44027;BME280;29696;55.698;37.460;2023-06-04T01:03:18;99757.44;;;5.13;83.80
44027;BME280;29696;55.698;37.460;2023-06-04T01:06:57;99758.72;;;5.20;83.57
44027;BME280;29696;55.698;37.460;2023-06-04T01:08:59;99759.31;;;5.11;83.39
44027;BME280;29696;55.698;37.460;2023-06-04T01:11:52;99766.38;;;5.23;83.56
44027;BME280;29696;55.698;37.460;2023-06-04T01:14:18;99765.09;;;5.16;83.35
44027;BME280;29696;55.698;37.460;2023-06-04T01:16:59;99770.41;;;5.29;83.40
44027;BME280;29696;55.698;37.460;2023-06-04T01:20:04;99770.19;;;5.46;83.30
44027;BME280;29696;55.698;37.460;2023-06-04T01:25:40;99769.38;;;5.58;82.28
44027;BME280;29696;55.698;37.460;2023-06-04T01:28:08;99777.81;;;5.63;81.53
44027;BME280;29696;55.698;37.460;2023-06-04T01:30:44;99773.41;;;5.64;81.13
44027;BME280;29696;55.698;37.460;2023-06-04T01:33:17;99783.06;;;5.63;80.55
44027;BME280;29696;55.698;37.460;2023-06-04T01:35:44;99784.16;;;5.59;80.60
44027;BME280;29696;55.698;37.460;2023-06-04T01:38:11;99789.22;;;5.62;80.81
44027;BME280;29696;55.698;37.460;2023-06-04T01:40:37;99788.50;;;5.60;81.08
44027;BME280;29696;55.698;37.460;2023-06-04T01:43:04;99787.53;;;5.61;81.22
44027;BME280;29696;55.698;37.460;2023-06-04T01:45:30;99795.53;;;5.60;81.36
44027;BME280;29696;55.698;37.460;2023-06-04T01:47:57;99800.75;;;5.60;81.51
44027;BME280;29696;55.698;37.460;2023-06-04T01:50:24;99799.81;;;5.61;81.64
44027;BME280;29696;55.698;37.460;2023-06-04T01:52:50;99801.47;;;5.62;81.38
44027;BME280;29696;55.698;37.460;2023-06-04T01:55:17;99799.63;;;5.64;81.02
44027;BME280;29696;55.698;37.460;2023-06-04T01:57:47;99804.78;;;5.65;81.22
44027;BME280;29696;55.698;37.460;2023-06-04T02:00:14;99805.41;;;5.69;81.16
44027;BME280;29696;55.698;37.460;2023-06-04T02:02:42;99803.91;;;5.92;80.98
44027;BME280;29696;55.698;37.460;2023-06-04T02:05:10;99808.44;;;6.30;81.16
44027;BME280;29696;55.698;37.460;2023-06-04T02:07:38;99806.34;;;6.60;80.33
44027;BME280;29696;55.698;37.460;2023-06-04T02:12:58;99814.34;;;7.47;77.38
44027;BME280;29696;55.698;37.460;2023-06-04T02:15:27;99816.75;;;7.87;75.34
44027;BME280;29696;55.698;37.460;2023-06-04T02:17:59;99814.97;;;8.34;74.03
44027;BME280;29696;55.698;37.460;2023-06-04T02:20:27;99816.19;;;8.65;71.74
44027;BME280;29696;55.698;37.460;2023-06-04T02:22:55;99824.69;;;9.02;70.27
44027;BME280;29696;55.698;37.460;2023-06-04T02:25:25;99826.00;;;9.42;68.59
44027;BME280;29696;55.698;37.460;2023-06-04T02:27:51;99823.44;;;9.74;66.92
44027;BME280;29696;55.698;37.460;2023-06-04T02:30:18;99831.44;;;10.16;65.31
44027;BME280;29696;55.698;37.460;2023-06-04T02:32:46;99827.50;;;10.63;63.96
44027;BME280;29696;55.698;37.460;2023-06-04T02:35:12;99830.75;;;10.97;62.85
44027;BME280;29696;55.698;37.460;2023-06-04T02:37:39;99832.16;;;11.32;61.14
44027;BME280;29696;55.698;37.460;2023-06-04T02:40:06;99832.81;;;11.75;60.22
44027;BME280;29696;55.698;37.460;2023-06-04T02:42:32;99841.00;;;12.12;57.85
44027;BME280;29696;55.698;37.460;2023-06-04T02:44:59;99840.97;;;12.51;56.54
44027;BME280;29696;55.698;37.460;2023-06-04T02:47:25;99840.22;;;12.78;55.27
44027;BME280;29696;55.698;37.460;2023-06-04T02:49:52;99846.09;;;13.19;53.86
44027;BME280;29696;55.698;37.460;2023-06-04T02:52:18;99845.50;;;13.62;52.85
44027;BME280;29696;55.698;37.460;2023-06-04T02:54:44;99857.63;;;13.92;51.59
44027;BME280;29696;55.698;37.460;2023-06-04T02:57:11;99849.81;;;14.27;50.29
44027;BME280;29696;55.698;37.460;2023-06-04T02:59:37;99858.09;;;14.59;50.09
44027;BME280;29696;55.698;37.460;2023-06-04T03:02:04;99860.91;;;15.02;48.71
44027;BME280;29696;55.698;37.460;2023-06-04T03:04:31;99873.63;;;15.50;47.61
44027;BME280;29696;55.698;37.460;2023-06-04T03:07:02;99870.91;;;15.77;47.08
44027;BME280;29696;55.698;37.460;2023-06-04T03:09:30;99872.84;;;16.25;45.82
44027;BME280;29696;55.698;37.460;2023-06-04T03:11:59;99881.72;;;16.83;45.46
44027;BME280;29696;55.698;37.460;2023-06-04T03:14:28;99875.44;;;17.31;43.34
44027;BME280;29696;55.698;37.460;2023-06-04T03:17:01;99884.28;;;17.79;41.96
44027;BME280;29696;55.698;37.460;2023-06-04T03:19:38;99887.53;;;18.29;41.61
44027;BME280;29696;55.698;37.460;2023-06-04T03:22:05;99891.81;;;18.61;40.12
44027;BME280;29696;55.698;37.460;2023-06-04T03:24:38;99894.53;;;19.29;39.85
44027;BME280;29696;55.698;37.460;2023-06-04T03:27:06;99895.19;;;19.46;38.63
44027;BME280;29696;55.698;37.460;2023-06-04T03:29:34;99896.44;;;19.94;37.66
44027;BME280;29696;55.698;37.460;2023-06-04T03:32:03;99902.56;;;20.46;36.49
44027;BME280;29696;55.698;37.460;2023-06-04T03:34:31;99892.22;;;20.86;36.00
44027;BME280;29696;55.698;37.460;2023-06-04T03:36:58;99896.13;;;21.39;34.54
44027;BME280;29696;55.698;37.460;2023-06-04T03:39:26;99906.38;;;22.12;33.40
44027;BME280;29696;55.698;37.460;2023-06-04T03:41:53;99912.31;;;22.75;32.49
44027;BME280;29696;55.698;37.460;2023-06-04T03:44:22;99906.53;;;23.05;31.78
44027;BME280;29696;55.698;37.460;2023-06-04T03:46:50;99915.56;;;23.57;30.95
44027;BME280;29696;55.698;37.460;2023-06-04T03:49:17;99912.97;;;23.89;30.51
44027;BME280;29696;55.698;37.460;2023-06-04T03:51:46;99917.53;;;23.95;30.18
44027;BME280;29696;55.698;37.460;2023-06-04T03:54:13;99923.06;;;24.07;29.87
44027;BME280;29696;55.698;37.460;2023-06-04T03:56:44;99916.28;;;24.36;29.90
44027;BME280;29696;55.698;37.460;2023-06-04T03:59:12;99912.63;;;24.62;29.53
44027;BME280;29696;55.698;37.460;2023-06-04T04:01:39;99917.84;;;25.32;28.49
44027;BME280;29696;55.698;37.460;2023-06-04T04:04:05;99924.16;;;25.44;28.06
44027;BME280;29696;55.698;37.460;2023-06-04T04:06:32;99921.91;;;25.96;27.15
44027;BME280;29696;55.698;37.460;2023-06-04T04:08:59;99925.03;;;26.30;26.71
44027;BME280;29696;55.698;37.460;2023-06-04T04:11:26;99932.44;;;26.65;26.59
44027;BME280;29696;55.698;37.460;2023-06-04T04:13:53;99929.19;;;27.10;25.49
44027;BME280;29696;55.698;37.460;2023-06-04T04:16:22;99916.53;;;27.22;25.50
44027;BME280;29696;55.698;37.460;2023-06-04T04:18:48;99928.13;;;27.58;24.98
44027;BME280;29696;55.698;37.460;2023-06-04T04:21:15;99929.41;;;28.19;24.65
44027;BME280;29696;55.698;37.460;2023-06-04T04:23:45;99937.38;;;28.66;23.25
44027;BME280;29696;55.698;37.460;2023-06-04T04:26:12;99929.00;;;29.02;22.77
44027;BME280;29696;55.698;37.460;2023-06-04T04:28:45;99927.16;;;28.74;22.68
44027;BME280;29696;55.698;37.460;2023-06-04T04:31:12;99934.00;;;28.93;22.68
44027;BME280;29696;55.698;37.460;2023-06-04T04:33:38;99930.88;;;29.18;22.78
44027;BME280;29696;55.698;37.460;2023-06-04T04:36:08;99943.09;;;28.53;23.04
44027;BME280;29696;55.698;37.460;2023-06-04T04:38:38;99938.72;;;29.15;22.65
44027;BME280;29696;55.698;37.460;2023-06-04T04:41:06;99941.50;;;29.58;21.83
44027;BME280;29696;55.698;37.460;2023-06-04T04:43:35;99943.84;;;30.11;21.52
44027;BME280;29696;55.698;37.460;2023-06-04T04:46:30;99939.41;;;30.54;21.02
44027;BME280;29696;55.698;37.460;2023-06-04T04:48:56;99941.59;;;30.84;20.60
44027;BME280;29696;55.698;37.460;2023-06-04T04:51:22;99945.47;;;30.88;20.34
44027;BME280;29696;55.698;37.460;2023-06-04T04:53:50;99942.09;;;29.77;21.87
44027;BME280;29696;55.698;37.460;2023-06-04T04:56:17;99947.88;;;30.08;21.25
44027;BME280;29696;55.698;37.460;2023-06-04T04:58:48;99938.84;;;29.80;21.18
44027;BME280;29696;55.698;37.460;2023-06-04T05:01:15;99943.69;;;29.56;22.19
44027;BME280;29696;55.698;37.460;2023-06-04T05:03:43;99944.50;;;30.45;20.79
44027;BME280;29696;55.698;37.460;2023-06-04T05:06:12;99944.69;;;30.38;21.52
44027;BME280;29696;55.698;37.460;2023-06-04T05:08:38;99945.38;;;30.23;20.79
44027;BME280;29696;55.698;37.460;2023-06-04T05:11:05;99951.63;;;30.24;21.29
44027;BME280;29696;55.698;37.460;2023-06-04T05:13:33;99950.81;;;30.51;21.00
44027;BME280;29696;55.698;37.460;2023-06-04T05:16:03;99954.81;;;29.55;22.34
44027;BME280;29696;55.698;37.460;2023-06-04T05:18:34;99955.78;;;29.27;21.95
44027;BME280;29696;55.698;37.460;2023-06-04T05:21:03;99949.31;;;28.37;22.62
44027;BME280;29696;55.698;37.460;2023-06-04T05:23:31;99946.88;;;29.70;21.75
44027;BME280;29696;55.698;37.460;2023-06-04T05:26:01;99958.09;;;30.40;20.82
44027;BME280;29696;55.698;37.460;2023-06-04T05:28:27;99949.97;;;31.42;19.72
44027;BME280;29696;55.698;37.460;2023-06-04T05:30:54;99943.19;;;31.49;19.57
44027;BME280;29696;55.698;37.460;2023-06-04T05:33:27;99943.97;;;31.92;18.88
44027;BME280;29696;55.698;37.460;2023-06-04T05:35:58;99945.22;;;31.74;19.22
44027;BME280;29696;55.698;37.460;2023-06-04T05:38:28;99937.75;;;32.27;19.06
44027;BME280;29696;55.698;37.460;2023-06-04T05:40:59;99950.16;;;32.81;18.90
44027;BME280;29696;55.698;37.460;2023-06-04T05:43:31;99942.66;;;31.15;19.49
44027;BME280;29696;55.698;37.460;2023-06-04T05:45:57;99946.72;;;32.02;18.70
44027;BME280;29696;55.698;37.460;2023-06-04T05:48:24;99950.47;;;33.10;18.56
44027;BME280;29696;55.698;37.460;2023-06-04T05:50:51;99937.06;;;33.04;18.04
44027;BME280;29696;55.698;37.460;2023-06-04T05:53:18;99945.53;;;33.12;17.72
44027;BME280;29696;55.698;37.460;2023-06-04T05:55:46;99952.66;;;34.14;16.61
44027;BME280;29696;55.698;37.460;2023-06-04T05:58:13;99949.34;;;34.96;16.47
44027;BME280;29696;55.698;37.460;2023-06-04T06:00:40;99950.41;;;35.29;16.18
44027;BME280;29696;55.698;37.460;2023-06-04T06:03:07;99947.28;;;35.89;15.54
44027;BME280;29696;55.698;37.460;2023-06-04T06:05:40;99949.69;;;34.05;16.76
44027;BME280;29696;55.698;37.460;2023-06-04T06:08:07;99947.09;;;34.69;15.91
44027;BME280;29696;55.698;37.460;2023-06-04T06:10:34;99955.50;;;34.43;15.99
44027;BME280;29696;55.698;37.460;2023-06-04T06:13:01;99953.16;;;34.21;17.00
44027;BME280;29696;55.698;37.460;2023-06-04T06:15:28;99955.59;;;30.92;19.39
44027;BME280;29696;55.698;37.460;2023-06-04T06:17:56;99943.72;;;30.00;20.67
44027;BME280;29696;55.698;37.460;2023-06-04T06:20:22;99948.81;;;27.83;22.70
44027;BME280;29696;55.698;37.460;2023-06-04T06:22:51;99949.09;;;29.73;20.84
44027;BME280;29696;55.698;37.460;2023-06-04T06:25:19;99957.22;;;28.38;22.03
44027;BME280;29696;55.698;37.460;2023-06-04T06:27:58;99954.22;;;30.63;20.12
44027;BME280;29696;55.698;37.460;2023-06-04T06:30:26;99955.34;;;32.47;18.07
44027;BME280;29696;55.698;37.460;2023-06-04T06:32:52;99955.66;;;34.18;16.84
44027;BME280;29696;55.698;37.460;2023-06-04T06:35:19;99940.34;;;31.81;18.56
44027;BME280;29696;55.698;37.460;2023-06-04T06:37:46;99953.88;;;29.83;19.92
44027;BME280;29696;55.698;37.460;2023-06-04T06:40:12;99943.97;;;31.07;19.07
44027;BME280;29696;55.698;37.460;2023-06-04T06:42:39;99943.31;;;32.68;17.87
44027;BME280;29696;55.698;37.460;2023-06-04T06:45:05;99960.16;;;30.28;20.14
44027;BME280;29696;55.698;37.460;2023-06-04T06:47:33;99944.75;;;30.43;19.67
44027;BME280;29696;55.698;37.460;2023-06-04T06:49:59;99954.38;;;30.51;19.01
44027;BME280;29696;55.698;37.460;2023-06-04T06:52:26;99950.84;;;32.15;17.84
44027;BME280;29696;55.698;37.460;2023-06-04T06:54:52;99943.88;;;33.11;16.97
44027;BME280;29696;55.698;37.460;2023-06-04T06:57:19;99949.13;;;34.53;16.35
44027;BME280;29696;55.698;37.460;2023-06-04T06:59:45;99943.28;;;33.45;17.84
44027;BME280;29696;55.698;37.460;2023-06-04T07:02:11;99951.75;;;30.88;19.40
44027;BME280;29696;55.698;37.460;2023-06-04T07:04:38;99951.69;;;28.62;21.66
44027;BME280;29696;55.698;37.460;2023-06-04T07:07:04;99952.63;;;30.94;20.09
44027;BME280;29696;55.698;37.460;2023-06-04T07:09:31;99946.28;;;32.41;18.60
44027;BME280;29696;55.698;37.460;2023-06-04T07:11:58;99948.53;;;33.21;18.13
44027;BME280;29696;55.698;37.460;2023-06-04T07:14:24;99955.06;;;31.33;18.91
44027;BME280;29696;55.698;37.460;2023-06-04T07:16:50;99951.16;;;29.10;20.36
44027;BME280;29696;55.698;37.460;2023-06-04T07:19:17;99953.66;;;27.22;23.12
44027;BME280;29696;55.698;37.460;2023-06-04T07:21:43;99947.00;;;26.22;23.95
44027;BME280;29696;55.698;37.460;2023-06-04T07:24:10;99951.81;;;28.84;21.90
44027;BME280;29696;55.698;37.460;2023-06-04T07:26:36;99961.31;;;30.64;20.20
44027;BME280;29696;55.698;37.460;2023-06-04T07:29:02;99960.84;;;32.52;18.69
44027;BME280;29696;55.698;37.460;2023-06-04T07:31:29;99957.88;;;31.06;19.60
44027;BME280;29696;55.698;37.460;2023-06-04T07:33:55;99957.50;;;31.77;18.30
44027;BME280;29696;55.698;37.460;2023-06-04T07:36:22;99954.84;;;33.22;16.66
44027;BME280;29696;55.698;37.460;2023-06-04T07:38:48;99957.19;;;31.63;18.51
44027;BME280;29696;55.698;37.460;2023-06-04T07:41:15;99953.88;;;31.61;18.43
44027;BME280;29696;55.698;37.460;2023-06-04T07:43:43;99960.25;;;30.16;19.94
44027;BME280;29696;55.698;37.460;2023-06-04T07:46:09;99963.06;;;27.66;21.87
44027;BME280;29696;55.698;37.460;2023-06-04T07:48:37;99959.06;;;25.89;24.50
44027;BME280;29696;55.698;37.460;2023-06-04T07:51:03;99957.19;;;24.40;25.78
44027;BME280;29696;55.698;37.460;2023-06-04T07:53:32;99957.91;;;22.90;27.42
44027;BME280;29696;55.698;37.460;2023-06-04T07:55:59;99961.09;;;21.78;27.48
44027;BME280;29696;55.698;37.460;2023-06-04T07:58:25;99953.28;;;20.98;28.07
44027;BME280;29696;55.698;37.460;2023-06-04T08:00:53;99954.88;;;20.50;29.82
44027;BME280;29696;55.698;37.460;2023-06-04T08:03:19;99958.28;;;20.22;29.24
44027;BME280;29696;55.698;37.460;2023-06-04T08:05:46;99953.56;;;20.82;28.85
44027;BME280;29696;55.698;37.460;2023-06-04T08:08:13;99953.47;;;20.75;29.15
44027;BME280;29696;55.698;37.460;2023-06-04T08:10:39;99952.22;;;20.71;29.26
44027;BME280;29696;55.698;37.460;2023-06-04T08:13:06;99962.25;;;20.63;29.63
44027;BME280;29696;55.698;37.460;2023-06-04T08:15:33;99960.78;;;20.09;30.25
44027;BME280;29696;55.698;37.460;2023-06-04T08:18:19;99965.31;;;19.34;31.72
44027;BME280;29696;55.698;37.460;2023-06-04T08:21:08;99975.06;;;18.66;33.79
44027;BME280;29696;55.698;37.460;2023-06-04T08:23:54;99975.44;;;18.01;34.87
44027;BME280;29696;55.698;37.460;2023-06-04T08:26:41;99975.38;;;17.78;34.97
44027;BME280;29696;55.698;37.460;2023-06-04T08:29:11;99977.16;;;19.40;32.54
44027;BME280;29696;55.698;37.460;2023-06-04T08:31:57;99967.91;;;21.80;30.51
44027;BME280;29696;55.698;37.460;2023-06-04T08:34:28;99966.66;;;23.19;26.87
44027;BME280;29696;55.698;37.460;2023-06-04T08:36:56;99967.88;;;23.30;26.86
44027;BME280;29696;55.698;37.460;2023-06-04T08:39:23;99971.94;;;22.46;28.09
44027;BME280;29696;55.698;37.460;2023-06-04T08:41:52;99972.81;;;21.63;26.69
44027;BME280;29696;55.698;37.460;2023-06-04T08:44:19;99966.06;;;20.54;28.74
44027;BME280;29696;55.698;37.460;2023-06-04T08:46:47;99967.75;;;19.89;30.74
44027;BME280;29696;55.698;37.460;2023-06-04T08:49:18;99979.91;;;19.32;31.76
44027;BME280;29696;55.698;37.460;2023-06-04T08:51:47;99986.63;;;18.67;32.26
44027;BME280;29696;55.698;37.460;2023-06-04T08:54:14;99985.09;;;18.10;34.19
44027;BME280;29696;55.698;37.460;2023-06-04T08:56:43;99979.81;;;17.94;34.33
44027;BME280;29696;55.698;37.460;2023-06-04T08:59:10;99980.84;;;17.85;35.00
44027;BME280;29696;55.698;37.460;2023-06-04T09:01:37;99978.84;;;17.87;35.63
44027;BME280;29696;55.698;37.460;2023-06-04T09:04:05;99985.69;;;17.89;35.84
44027;BME280;29696;55.698;37.460;2023-06-04T09:06:32;99984.16;;;17.95;33.54
44027;BME280;29696;55.698;37.460;2023-06-04T09:09:01;99988.81;;;18.01;31.68
44027;BME280;29696;55.698;37.460;2023-06-04T09:11:39;99983.03;;;18.20;32.20
44027;BME280;29696;55.698;37.460;2023-06-04T09:14:07;99982.63;;;18.00;32.97
44027;BME280;29696;55.698;37.460;2023-06-04T09:16:50;99985.38;;;18.55;33.14
44027;BME280;29696;55.698;37.460;2023-06-04T09:19:18;99986.78;;;18.65;34.20
44027;BME280;29696;55.698;37.460;2023-06-04T09:21:49;99989.03;;;18.85;33.66
44027;BME280;29696;55.698;37.460;2023-06-04T09:24:15;99986.34;;;18.54;31.85
44027;BME280;29696;55.698;37.460;2023-06-04T09:26:42;99992.66;;;18.38;33.58
44027;BME280;29696;55.698;37.460;2023-06-04T09:29:08;99992.53;;;18.31;33.62
44027;BME280;29696;55.698;37.460;2023-06-04T09:31:38;99985.13;;;18.33;32.80
44027;BME280;29696;55.698;37.460;2023-06-04T09:34:06;99984.63;;;18.38;33.88
44027;BME280;29696;55.698;37.460;2023-06-04T09:36:34;99989.75;;;18.47;33.44
44027;BME280;29696;55.698;37.460;2023-06-04T09:39:02;99990.63;;;18.63;33.84
44027;BME280;29696;55.698;37.460;2023-06-04T09:41:29;99986.31;;;18.62;33.05
44027;BME280;29696;55.698;37.460;2023-06-04T09:44:02;99990.38;;;19.04;32.16
44027;BME280;29696;55.698;37.460;2023-06-04T09:46:29;99986.31;;;19.08;32.13
44027;BME280;29696;55.698;37.460;2023-06-04T09:49:01;99987.56;;;19.35;32.25
44027;BME280;29696;55.698;37.460;2023-06-04T09:51:28;99986.22;;;19.39;31.64
44027;BME280;29696;55.698;37.460;2023-06-04T09:53:59;99985.56;;;19.37;30.89
44027;BME280;29696;55.698;37.460;2023-06-04T09:56:26;99988.53;;;19.42;31.14
44027;BME280;29696;55.698;37.460;2023-06-04T09:58:57;99984.38;;;19.54;31.83
44027;BME280;29696;55.698;37.460;2023-06-04T10:01:28;99984.03;;;19.72;29.52
44027;BME280;29696;55.698;37.460;2023-06-04T10:03:58;99977.75;;;19.80;28.94
44027;BME280;29696;55.698;37.460;2023-06-04T10:06:33;99977.38;;;19.83;29.34
44027;BME280;29696;55.698;37.460;2023-06-04T10:09:04;99980.50;;;19.57;31.06
44027;BME280;29696;55.698;37.460;2023-06-04T10:11:35;99979.91;;;19.32;30.79
44027;BME280;29696;55.698;37.460;2023-06-04T10:14:10;99975.38;;;19.18;32.34
44027;BME280;29696;55.698;37.460;2023-06-04T10:16:37;99970.81;;;18.80;32.47
44027;BME280;29696;55.698;37.460;2023-06-04T10:19:07;99976.59;;;18.38;33.13
44027;BME280;29696;55.698;37.460;2023-06-04T10:21:34;99974.47;;;17.94;33.46
44027;BME280;29696;55.698;37.460;2023-06-04T10:24:03;99979.88;;;17.61;33.62
44027;BME280;29696;55.698;37.460;2023-06-04T10:26:29;99977.78;;;17.32;34.83
44027;BME280;29696;55.698;37.460;2023-06-04T10:28:56;99976.78;;;17.17;35.19
44027;BME280;29696;55.698;37.460;2023-06-04T10:31:24;99971.97;;;17.12;34.74
44027;BME280;29696;55.698;37.460;2023-06-04T10:33:57;99975.75;;;17.34;34.16
44027;BME280;29696;55.698;37.460;2023-06-04T10:36:24;99969.97;;;17.14;32.85
44027;BME280;29696;55.698;37.460;2023-06-04T10:38:52;99980.28;;;17.25;33.48
44027;BME280;29696;55.698;37.460;2023-06-04T10:41:20;99968.91;;;17.48;33.95
44027;BME280;29696;55.698;37.460;2023-06-04T10:43:50;99978.53;;;17.82;32.87
44027;BME280;29696;55.698;37.460;2023-06-04T10:46:20;99976.44;;;18.00;32.35
44027;BME280;29696;55.698;37.460;2023-06-04T10:49:08;99976.25;;;18.41;32.23
44027;BME280;29696;55.698;37.460;2023-06-04T10:51:35;99973.59;;;18.33;32.79
44027;BME280;29696;55.698;37.460;2023-06-04T10:54:04;99980.50;;;18.58;32.49
44027;BME280;29696;55.698;37.460;2023-06-04T10:56:32;99974.53;;;18.71;32.68
44027;BME280;29696;55.698;37.460;2023-06-04T10:59:02;99983.06;;;18.75;33.49
44027;BME280;29696;55.698;37.460;2023-06-04T11:01:38;99973.09;;;18.60;34.06
44027;BME280;29696;55.698;37.460;2023-06-04T11:04:05;99967.91;;;18.36;32.69
44027;BME280;29696;55.698;37.460;2023-06-04T11:06:31;99963.66;;;18.18;33.37
44027;BME280;29696;55.698;37.460;2023-06-04T11:09:05;99965.19;;;18.13;33.23
44027;BME280;29696;55.698;37.460;2023-06-04T11:11:32;99964.81;;;17.76;33.13
44027;BME280;29696;55.698;37.460;2023-06-04T11:14:09;99968.31;;;17.85;33.85
44027;BME280;29696;55.698;37.460;2023-06-04T11:16:36;99965.03;;;17.58;34.24
44027;BME280;29696;55.698;37.460;2023-06-04T11:19:02;99970.56;;;17.57;33.84
44027;BME280;29696;55.698;37.460;2023-06-04T11:21:29;99966.88;;;17.58;33.39
44027;BME280;29696;55.698;37.460;2023-06-04T11:23:59;99969.03;;;17.63;33.52
44027;BME280;29696;55.698;37.460;2023-06-04T11:26:34;99960.81;;;17.72;33.68
44027;BME280;29696;55.698;37.460;2023-06-04T11:29:02;99970.69;;;17.72;33.74
44027;BME280;29696;55.698;37.460;2023-06-04T11:31:45;99969.78;;;17.96;31.91
44027;BME280;29696;55.698;37.460;2023-06-04T11:34:27;99977.56;;;18.14;32.26
44027;BME280;29696;55.698;37.460;2023-06-04T11:36:54;99970.03;;;18.09;32.27
44027;BME280;29696;55.698;37.460;2023-06-04T11:39:22;99967.59;;;17.99;31.45
44027;BME280;29696;55.698;37.460;2023-06-04T11:41:50;99961.66;;;17.65;31.81
44027;BME280;29696;55.698;37.460;2023-06-04T11:44:20;99964.63;;;17.14;31.40
44027;BME280;29696;55.698;37.460;2023-06-04T11:46:47;99957.59;;;16.72;32.73
44027;BME280;29696;55.698;37.460;2023-06-04T11:49:16;99967.22;;;16.57;34.68
44027;BME280;29696;55.698;37.460;2023-06-04T11:51:51;99972.28;;;16.76;34.18
44027;BME280;29696;55.698;37.460;2023-06-04T11:54:20;99967.94;;;16.67;33.37
44027;BME280;29696;55.698;37.460;2023-06-04T11:56:49;99970.25;;;16.70;33.90
44027;BME280;29696;55.698;37.460;2023-06-04T11:59:17;99973.75;;;16.71;33.37
44027;BME280;29696;55.698;37.460;2023-06-04T12:01:45;99977.44;;;16.78;34.62
44027;BME280;29696;55.698;37.460;2023-06-04T12:04:16;99961.94;;;16.89;33.85
44027;BME280;29696;55.698;37.460;2023-06-04T12:06:56;99970.09;;;17.29;34.50
44027;BME280;29696;55.698;37.460;2023-06-04T12:09:25;99974.94;;;17.42;33.85
44027;BME280;29696;55.698;37.460;2023-06-04T12:11:59;99969.19;;;17.69;32.37
44027;BME280;29696;55.698;37.460;2023-06-04T12:14:29;99974.69;;;18.15;32.94
44027;BME280;29696;55.698;37.460;2023-06-04T12:17:16;99971.63;;;18.27;32.51
44027;BME280;29696;55.698;37.460;2023-06-04T12:19:50;99975.94;;;18.05;31.90
44027;BME280;29696;55.698;37.460;2023-06-04T12:22:16;99964.97;;;17.75;31.83
44027;BME280;29696;55.698;37.460;2023-06-04T12:24:51;99974.59;;;17.53;32.36
44027;BME280;29696;55.698;37.460;2023-06-04T12:27:23;99963.81;;;17.05;32.57
44027;BME280;29696;55.698;37.460;2023-06-04T12:30:03;99966.47;;;17.05;32.87
44027;BME280;29696;55.698;37.460;2023-06-04T12:32:36;99964.28;;;16.93;33.66
44027;BME280;29696;55.698;37.460;2023-06-04T12:35:03;99967.97;;;17.00;33.69
44027;BME280;29696;55.698;37.460;2023-06-04T12:37:31;99969.44;;;17.10;33.51
44027;BME280;29696;55.698;37.460;2023-06-04T12:39:57;99963.59;;;16.99;32.39
44027;BME280;29696;55.698;37.460;2023-06-04T12:42:24;99965.16;;;16.93;34.25
44027;BME280;29696;55.698;37.460;2023-06-04T12:44:50;99976.28;;;16.80;33.53
44027;BME280;29696;55.698;37.460;2023-06-04T12:47:17;99969.59;;;16.68;33.36
44027;BME280;29696;55.698;37.460;2023-06-04T12:49:44;99971.56;;;16.66;33.63
44027;BME280;29696;55.698;37.460;2023-06-04T12:52:11;99974.44;;;16.73;34.43
44027;BME280;29696;55.698;37.460;2023-06-04T12:54:37;99973.28;;;16.75;33.95
44027;BME280;29696;55.698;37.460;2023-06-04T12:57:04;99964.44;;;16.83;34.16
44027;BME280;29696;55.698;37.460;2023-06-04T12:59:30;99961.94;;;16.98;33.12
44027;BME280;29696;55.698;37.460;2023-06-04T13:01:56;99969.63;;;17.09;32.86
44027;BME280;29696;55.698;37.460;2023-06-04T13:04:23;99962.94;;;17.21;33.89
44027;BME280;29696;55.698;37.460;2023-06-04T13:06:50;99966.59;;;17.28;33.48
44027;BME280;29696;55.698;37.460;2023-06-04T13:09:19;99960.25;;;17.29;33.81